createdAt,value
2022-09-17T00:00:31.291Z,11.08
2022-09-17T00:05:31.098Z,11.08
2022-09-17T00:06:46.856Z,11.12
2022-09-17T00:10:31.368Z,11.12
2022-09-17T00:15:31.138Z,11.15
2022-09-17T00:20:20.833Z,11.17
2022-09-17T00:20:30.628Z,11.17
2022-09-17T00:25:30.573Z,11.18
2022-09-17T00:26:59.332Z,11.19
2022-09-17T00:30:30.682Z,11.19
2022-09-17T00:35:30.482Z,11.20
2022-09-17T00:40:30.746Z,11.19
2022-09-17T00:45:31.408Z,11.14
2022-09-17T00:45:39.784Z,11.14
2022-09-17T00:48:18.536Z,11.12
2022-09-17T00:50:34.175Z,11.12
2022-09-17T00:55:35.463Z,11.09
2022-09-17T00:58:07.036Z,11.08
2022-09-17T01:00:09.036Z,11.08
2022-09-17T01:00:31.548Z,11.08
2022-09-17T01:05:40.257Z,11.10
2022-09-17T01:06:27.735Z,11.12
2022-09-17T01:10:41.725Z,11.12
2022-09-17T01:14:31.979Z,11.08
2022-09-17T01:15:39.084Z,11.08
2022-09-17T01:20:47.415Z,11.02
2022-09-17T01:21:49.790Z,11.01
2022-09-17T01:25:41.506Z,11.01
2022-09-17T01:30:13.834Z,10.98
2022-09-17T01:30:37.745Z,10.98
2022-09-17T01:35:34.933Z,10.99
2022-09-17T01:39:31.184Z,11.03
2022-09-17T01:40:39.254Z,11.03
2022-09-17T01:41:42.336Z,10.96
2022-09-17T01:45:37.450Z,10.96
2022-09-17T01:50:37.017Z,10.92
2022-09-17T01:55:34.801Z,10.86
2022-09-17T02:00:30.877Z,10.83
2022-09-17T02:03:16.403Z,10.78
2022-09-17T02:05:40.443Z,10.78
2022-09-17T02:09:37.408Z,10.73
2022-09-17T02:10:34.296Z,10.73
2022-09-17T02:15:36.157Z,10.68
2022-09-17T02:20:38.151Z,10.62
2022-09-17T02:25:35.598Z,10.61
2022-09-17T02:26:55.137Z,10.57
2022-09-17T02:29:32.427Z,10.57
2022-09-17T02:30:31.179Z,10.57
2022-09-17T02:35:31.074Z,10.51
2022-09-17T02:40:36.351Z,10.49
2022-09-17T02:41:11.185Z,10.45
2022-09-17T02:44:42.774Z,10.45
2022-09-17T02:45:45.237Z,10.45
2022-09-17T02:49:44.691Z,10.46
2022-09-17T02:50:47.719Z,10.46
2022-09-17T02:51:23.330Z,10.45
2022-09-17T02:55:36.359Z,10.45
2022-09-17T03:00:10.383Z,10.36
2022-09-17T03:00:30.855Z,10.36
2022-09-17T03:05:31.898Z,10.34
2022-09-17T03:10:32.700Z,10.28
2022-09-17T03:12:25.819Z,10.23
2022-09-17T03:15:30.547Z,10.23
2022-09-17T03:17:26.264Z,10.19
2022-09-17T03:20:30.459Z,10.19
2022-09-17T03:21:06.055Z,10.17
2022-09-17T03:24:16.391Z,10.17
2022-09-17T03:25:30.733Z,10.17
2022-09-17T03:30:30.561Z,10.10
2022-09-17T03:35:30.379Z,10.09
2022-09-17T03:40:30.471Z,10.11
2022-09-17T03:45:19.010Z,10.06
2022-09-17T03:45:30.423Z,10.06
2022-09-17T03:48:00.966Z,10.14
2022-09-17T03:50:30.560Z,10.14
2022-09-17T03:51:11.236Z,10.07
2022-09-17T03:54:38.850Z,10.07
2022-09-17T03:55:30.384Z,10.07
2022-09-17T04:00:30.908Z,10.01
2022-09-17T04:05:30.791Z,9.95
2022-09-17T04:07:50.132Z,9.92
2022-09-17T04:10:30.412Z,9.92
2022-09-17T04:12:13.705Z,9.87
2022-09-17T04:15:30.364Z,9.87
2022-09-17T04:19:57.276Z,9.84
2022-09-17T04:20:30.391Z,9.84
2022-09-17T04:22:04.863Z,9.83
2022-09-17T04:25:30.435Z,9.83
2022-09-17T04:30:30.987Z,9.82
2022-09-17T04:32:01.407Z,9.86
2022-09-17T04:35:30.507Z,9.86
2022-09-17T04:40:30.819Z,9.85
2022-09-17T04:45:32.371Z,9.85
2022-09-17T04:48:44.874Z,9.86
2022-09-17T04:50:30.967Z,9.86
2022-09-17T04:55:30.337Z,9.93
2022-09-17T05:00:30.555Z,10.02
2022-09-17T05:03:46.141Z,10.14
2022-09-17T05:05:30.335Z,10.14
2022-09-17T05:06:10.480Z,10.24
2022-09-17T05:10:30.388Z,10.24
2022-09-17T05:14:54.982Z,10.29
2022-09-17T05:15:30.397Z,10.29
2022-09-17T05:16:26.837Z,10.38
2022-09-17T05:20:30.360Z,10.38
2022-09-17T05:21:16.104Z,10.52
2022-09-17T05:25:31.475Z,10.52
2022-09-17T05:25:38.716Z,10.52
2022-09-17T05:29:05.437Z,10.61
2022-09-17T05:30:32.207Z,10.61
2022-09-17T05:33:02.159Z,10.81
2022-09-17T05:35:32.385Z,10.81
2022-09-17T05:38:35.068Z,10.88
2022-09-17T05:40:31.771Z,10.88
2022-09-17T05:45:32.204Z,11.19
2022-09-17T05:46:14.872Z,11.53
2022-09-17T05:50:31.283Z,11.53
2022-09-17T05:52:13.912Z,11.62
2022-09-17T05:55:30.731Z,11.62
2022-09-17T05:56:08.730Z,12.00
2022-09-17T06:00:30.287Z,12.00
2022-09-17T06:03:38.627Z,12.17
2022-09-17T06:05:13.850Z,12.17
2022-09-17T06:05:30.788Z,12.17
2022-09-17T06:10:07.341Z,12.40
2022-09-17T06:10:30.531Z,12.40
2022-09-17T06:15:30.376Z,12.76
2022-09-17T06:15:38.637Z,12.76
2022-09-17T06:20:30.292Z,12.89
2022-09-17T06:21:11.807Z,13.39
2022-09-17T06:24:36.635Z,13.39
2022-09-17T06:25:30.792Z,13.39
2022-09-17T06:30:30.326Z,13.83
2022-09-17T06:34:45.400Z,14.03
2022-09-17T06:35:30.231Z,14.03
2022-09-17T06:40:30.387Z,14.17
2022-09-17T06:44:20.740Z,14.62
2022-09-17T06:45:30.561Z,14.62
2022-09-17T06:46:15.994Z,14.95
2022-09-17T06:50:30.363Z,14.95
2022-09-17T06:50:42.606Z,14.95
2022-09-17T06:55:30.612Z,15.50
2022-09-17T07:00:30.234Z,16.00
2022-09-17T07:02:35.978Z,15.71
2022-09-17T07:04:28.847Z,15.71
2022-09-17T07:05:31.849Z,15.71
2022-09-17T07:09:37.595Z,15.28
2022-09-17T07:10:31.279Z,15.28
2022-09-17T07:15:30.315Z,15.48
2022-09-17T07:20:30.454Z,14.73
2022-09-17T07:25:30.248Z,14.28
2022-09-17T07:30:30.789Z,14.13
2022-09-17T07:35:30.346Z,13.65
2022-09-17T07:40:30.415Z,13.27
2022-09-17T07:43:22.437Z,13.07
2022-09-17T07:45:30.246Z,13.07
2022-09-17T07:49:49.943Z,12.86
2022-09-17T07:50:32.397Z,12.86
2022-09-17T07:55:30.606Z,12.84
2022-09-17T08:00:30.682Z,12.71
2022-09-17T08:04:09.829Z,12.57
2022-09-17T08:05:31.440Z,12.57
2022-09-17T08:10:30.483Z,12.71
2022-09-17T08:15:30.308Z,12.58
2022-09-17T08:18:38.411Z,12.41
2022-09-17T08:20:30.199Z,12.41
2022-09-17T08:23:34.057Z,12.27
2022-09-17T08:25:30.339Z,12.27
2022-09-17T08:30:31.418Z,12.22
2022-09-17T08:35:30.167Z,12.56
2022-09-17T08:40:30.572Z,12.60
2022-09-17T08:43:58.551Z,12.49
2022-09-17T08:45:30.265Z,12.49
2022-09-17T08:47:12.818Z,12.48
2022-09-17T08:50:32.061Z,12.48
2022-09-17T08:50:41.558Z,12.48
2022-09-17T08:55:36.445Z,12.56
2022-09-17T09:00:38.100Z,12.60
2022-09-17T09:05:35.828Z,13.56
2022-09-17T09:07:30.320Z,14.12
2022-09-17T09:10:36.952Z,14.12
2022-09-17T09:15:37.233Z,13.89
2022-09-17T09:20:39.034Z,13.44
2022-09-17T09:25:36.046Z,13.29
2022-09-17T09:26:01.956Z,13.29
2022-09-17T09:30:42.217Z,13.19
2022-09-17T09:33:48.025Z,13.18
2022-09-17T09:35:32.595Z,13.18
2022-09-17T09:35:50.655Z,13.18
2022-09-17T09:40:36.568Z,13.11
2022-09-17T09:44:41.731Z,13.41
2022-09-17T09:45:14.412Z,13.41
2022-09-17T09:45:43.814Z,13.41
2022-09-17T09:50:11.395Z,13.37
2022-09-17T09:51:02.229Z,13.37
2022-09-17T09:54:30.343Z,13.25
2022-09-17T09:55:47.421Z,13.25
2022-09-17T09:58:34.742Z,13.32
2022-09-17T10:00:34.685Z,13.32
2022-09-17T10:00:42.609Z,13.32
2022-09-17T10:05:30.200Z,13.35
2022-09-17T10:08:39.507Z,13.20
2022-09-17T10:10:18.699Z,13.20
2022-09-17T10:10:29.999Z,13.20
2022-09-17T10:15:25.756Z,13.18
2022-09-17T10:15:29.809Z,13.18
2022-09-17T10:20:30.348Z,13.49
2022-09-17T10:25:27.568Z,13.37
2022-09-17T10:25:32.623Z,13.37
2022-09-17T10:30:31.063Z,13.44
2022-09-17T10:33:56.590Z,13.49
2022-09-17T10:35:30.558Z,13.49
2022-09-17T10:40:31.486Z,13.54
2022-09-17T10:40:39.139Z,13.54
2022-09-17T10:45:31.533Z,13.48
2022-09-17T10:46:38.531Z,13.40
2022-09-17T10:49:53.025Z,13.40
2022-09-17T10:50:31.975Z,13.40
2022-09-17T10:52:59.615Z,13.66
2022-09-17T10:54:58.779Z,13.66
2022-09-17T10:55:32.656Z,13.66
2022-09-17T11:00:38.690Z,13.96
2022-09-17T11:05:39.189Z,13.88
2022-09-17T11:06:37.494Z,13.78
2022-09-17T11:08:40.967Z,13.78
2022-09-17T11:10:36.776Z,13.78
2022-09-17T11:11:26.668Z,13.68
2022-09-17T11:12:43.793Z,13.68
2022-09-17T11:15:39.572Z,13.68
2022-09-17T11:16:36.266Z,13.76
2022-09-17T11:20:46.215Z,13.76
2022-09-17T11:25:33.879Z,13.99
2022-09-17T11:25:43.707Z,13.99
2022-09-17T11:30:35.062Z,14.63
2022-09-17T11:35:34.518Z,15.05
2022-09-17T11:40:36.986Z,15.35
2022-09-17T11:41:49.243Z,16.02
2022-09-17T11:45:35.466Z,16.02
2022-09-17T11:50:35.690Z,16.36
2022-09-17T11:55:34.598Z,16.59
2022-09-17T11:55:41.659Z,16.59
2022-09-17T11:59:21.894Z,16.98
2022-09-17T12:00:34.701Z,16.98
2022-09-17T12:02:45.314Z,16.82
2022-09-17T12:05:34.968Z,16.82
2022-09-17T12:05:48.517Z,16.82
2022-09-17T12:10:40.608Z,16.47
2022-09-17T12:10:48.845Z,16.47
2022-09-17T12:10:57.176Z,16.47
2022-09-17T12:13:50.526Z,16.06
2022-09-17T12:15:35.087Z,16.06
2022-09-17T12:20:32.969Z,15.79
2022-09-17T12:25:37.790Z,15.63
2022-09-17T12:30:37.431Z,15.47
2022-09-17T12:36:03.143Z,15.29
2022-09-17T12:40:34.410Z,15.26
2022-09-17T12:45:16.051Z,14.95
2022-09-17T12:45:40.375Z,14.95
2022-09-17T12:50:39.781Z,14.83
2022-09-17T12:51:09.603Z,14.80
2022-09-17T12:55:40.337Z,14.80
2022-09-17T12:59:39.108Z,14.80
2022-09-17T13:00:34.203Z,14.80
2022-09-17T13:05:49.418Z,14.82
2022-09-17T13:06:09.660Z,14.83
2022-09-17T13:06:21.288Z,14.83
2022-09-17T13:10:41.108Z,14.83
2022-09-17T13:14:16.363Z,14.80
2022-09-17T13:15:46.047Z,14.80
2022-09-17T13:18:12.404Z,14.88
2022-09-17T13:20:36.944Z,14.88
2022-09-17T13:22:02.939Z,14.87
2022-09-17T13:25:30.244Z,14.87
2022-09-17T13:30:49.911Z,14.76
2022-09-17T13:35:50.008Z,14.74
2022-09-17T13:40:32.023Z,14.82
2022-09-17T13:42:05.157Z,14.73
2022-09-17T13:43:28.876Z,14.73
2022-09-17T13:45:31.102Z,14.73
2022-09-17T13:50:33.103Z,14.69
2022-09-17T13:55:34.266Z,14.54
2022-09-17T13:57:12.978Z,14.50
2022-09-17T13:59:07.717Z,14.50
2022-09-17T14:00:48.912Z,14.50
2022-09-17T14:04:31.934Z,14.44
2022-09-17T14:05:34.671Z,14.44
2022-09-17T14:10:40.825Z,14.43
2022-09-17T14:15:31.349Z,14.33
2022-09-17T14:20:33.202Z,14.23
2022-09-17T14:30:00.663Z,14.31
2022-09-17T14:30:31.931Z,14.31
2022-09-17T14:32:19.834Z,14.36
2022-09-17T14:34:49.024Z,14.36
2022-09-17T14:35:34.440Z,14.36
2022-09-17T14:40:33.319Z,14.40
2022-09-17T14:44:58.370Z,14.45
2022-09-17T14:45:32.751Z,14.45
2022-09-17T14:46:28.798Z,14.46
2022-09-17T14:48:11.402Z,14.46
2022-09-17T14:50:30.484Z,14.46
2022-09-17T14:55:31.128Z,14.53
2022-09-17T14:59:51.972Z,14.56
2022-09-17T15:00:32.963Z,14.56
2022-09-17T15:03:20.680Z,14.54
2022-09-17T15:05:32.822Z,14.54
2022-09-17T15:09:21.654Z,14.63
2022-09-17T15:10:30.591Z,14.63
2022-09-17T15:11:39.569Z,14.67
2022-09-17T15:15:30.015Z,14.67
2022-09-17T15:20:31.083Z,14.69
2022-09-17T15:23:57.366Z,14.61
2022-09-17T15:25:31.348Z,14.61
2022-09-17T15:30:30.196Z,14.53
2022-09-17T15:35:31.558Z,14.29
2022-09-17T15:40:32.588Z,14.34
2022-09-17T15:44:30.398Z,14.14
2022-09-17T15:45:36.183Z,14.14
2022-09-17T15:50:16.261Z,14.24
2022-09-17T15:50:31.825Z,14.24
2022-09-17T15:55:32.482Z,14.12
2022-09-17T16:00:30.704Z,14.06
2022-09-17T16:02:56.964Z,13.99
2022-09-17T16:05:43.117Z,13.99
2022-09-17T16:08:22.940Z,13.87
2022-09-17T16:10:29.908Z,13.87
2022-09-17T16:15:29.960Z,13.81
2022-09-17T16:20:30.027Z,13.77
2022-09-17T16:25:30.140Z,13.69
2022-09-17T16:30:30.092Z,13.74
2022-09-17T16:35:29.969Z,13.69
2022-09-17T16:40:30.184Z,13.52
2022-09-17T16:42:23.624Z,13.53
2022-09-17T16:45:30.625Z,13.53
2022-09-17T16:50:30.121Z,13.47
2022-09-17T16:55:30.071Z,13.39
2022-09-17T17:00:29.981Z,13.31
2022-09-17T17:05:30.748Z,13.21
2022-09-17T17:10:30.074Z,13.19
2022-09-17T17:13:19.038Z,13.12
2022-09-17T17:14:48.971Z,13.12
2022-09-17T17:15:29.999Z,13.12
2022-09-17T17:20:31.046Z,13.06
2022-09-17T17:25:31.232Z,13.01
2022-09-17T17:28:56.126Z,12.96
2022-09-17T17:30:34.713Z,12.96
2022-09-17T17:35:30.548Z,12.88
2022-09-17T17:40:30.131Z,12.81
2022-09-17T17:45:29.850Z,12.73
2022-09-17T17:50:31.076Z,12.64
2022-09-17T17:55:30.043Z,12.50
2022-09-17T18:00:29.907Z,12.44
2022-09-17T18:05:29.946Z,12.39
2022-09-17T18:10:29.878Z,12.33
2022-09-17T18:15:31.934Z,12.25
2022-09-17T18:20:29.830Z,12.20
2022-09-17T18:25:30.082Z,12.17
2022-09-17T18:30:31.264Z,12.16
2022-09-17T18:35:34.308Z,12.09
2022-09-17T18:40:30.052Z,12.08
2022-09-17T18:44:05.246Z,11.97
2022-09-17T18:45:31.023Z,11.97
2022-09-17T18:50:29.935Z,11.96
2022-09-17T18:55:30.111Z,11.99
2022-09-17T18:58:56.107Z,11.96
2022-09-17T19:00:29.981Z,11.96
2022-09-17T19:05:30.012Z,11.96
2022-09-17T19:10:30.327Z,11.94
2022-09-17T19:15:29.935Z,11.99
2022-09-17T19:20:34.717Z,11.95
2022-09-17T19:22:32.633Z,11.95
2022-09-17T19:25:30.168Z,11.95
2022-09-17T19:28:22.080Z,11.99
2022-09-17T19:30:31.302Z,11.99
2022-09-17T19:35:29.945Z,11.94
2022-09-17T19:40:29.870Z,11.91
2022-09-17T19:45:30.086Z,11.92
2022-09-17T19:50:30.788Z,11.90
2022-09-17T19:51:13.426Z,11.88
2022-09-17T19:55:29.740Z,11.88
2022-09-17T19:58:49.392Z,11.85
2022-09-17T20:00:30.042Z,11.85
2022-09-17T20:01:13.006Z,11.80
2022-09-17T20:05:30.238Z,11.80
2022-09-17T20:10:32.782Z,11.69
2022-09-17T20:13:37.633Z,11.61
2022-09-17T20:15:33.479Z,11.61
2022-09-17T20:20:29.898Z,11.59
2022-09-17T20:23:15.372Z,11.55
2022-09-17T20:25:29.965Z,11.55
2022-09-17T20:25:38.231Z,11.55
2022-09-17T20:30:02.202Z,11.51
2022-09-17T20:30:29.823Z,11.51
2022-09-17T20:35:29.757Z,11.50
2022-09-17T20:39:13.219Z,11.44
2022-09-17T20:40:29.976Z,11.44
2022-09-17T20:45:29.710Z,11.48
2022-09-17T20:50:29.878Z,11.43
2022-09-17T20:51:39.224Z,11.52
2022-09-17T20:55:29.743Z,11.52
2022-09-17T20:59:46.113Z,11.47
2022-09-17T21:00:30.087Z,11.47
2022-09-17T21:05:29.901Z,11.45
2022-09-17T21:08:27.654Z,11.42
2022-09-17T21:10:29.710Z,11.42
2022-09-17T21:15:29.946Z,11.40
2022-09-17T21:20:29.830Z,11.41
2022-09-17T21:24:27.157Z,11.35
2022-09-17T21:25:29.792Z,11.35
2022-09-17T21:33:33.155Z,11.41
2022-09-17T21:38:33.234Z,11.33
2022-09-17T21:43:33.802Z,11.29
2022-09-17T21:48:35.224Z,11.23
2022-09-17T21:53:33.850Z,11.16
2022-09-17T21:58:33.957Z,11.10
2022-09-17T22:03:32.914Z,11.03
2022-09-17T22:08:33.805Z,11.02
2022-09-17T22:13:32.866Z,10.98
2022-09-17T22:18:34.445Z,10.94
2022-09-17T22:23:32.995Z,10.89
2022-09-17T22:28:34.958Z,10.88
2022-09-17T22:33:02.936Z,10.86
2022-09-17T22:33:35.344Z,10.86
2022-09-17T22:38:33.242Z,10.84
2022-09-17T22:43:33.393Z,10.81
2022-09-17T22:48:32.639Z,10.80
2022-09-17T22:53:32.883Z,10.86
2022-09-17T22:58:32.786Z,10.91
2022-09-17T23:03:33.464Z,10.91
2022-09-17T23:08:34.127Z,10.82
2022-09-17T23:13:33.668Z,10.76
2022-09-17T23:18:33.996Z,10.74
2022-09-17T23:23:34.472Z,10.66
2022-09-17T23:28:34.367Z,10.65
2022-09-17T23:33:33.118Z,10.58
2022-09-17T23:38:33.993Z,10.61
2022-09-17T23:43:32.747Z,10.60
2022-09-17T23:48:32.656Z,10.61
2022-09-17T23:53:34.279Z,10.65
2022-09-17T23:58:33.388Z,10.61
